»·PEaware :: N74KW KCPR-KRIW

N74KW :: KCPR-KRIW

FLIGHT INFORMATION

Flight Status: Arrived
Operator: Privately registered:
United States
More flights under this callsign
Pilot: Charles C. (26995)
Aircraft: MCDONNELL-DOUGLAS SKYTRAIN C-47
(DC3)
More flights by this aircraft type
Origin: KCPR Natrona Co Intl
United States
Destination: KRIW Riverton Regl
United States
More flights between these airports :: More routes between these airports
Route: +ALCOS6 ALCOS JUMKO V85 RIW
File this flight plan on PilotEdge
Remarks:
Altitude:
(Current/Filed)
10,000ft
Speed:
(Current/Filed)
155kts
Departed: 25-Oct-20 11:27 AM
Arrived: 25-Oct-20 12:20 PM
Distance/Time
Traveled:
88nm/0:53
Distance/Time
To Go:
Arrived

Flight Plot

Page will automatically refresh every two minutes.

Flight plan parsing failed; only flown route is shown


Map Options




Map Legend


Flown Route
Filed Route
Departure Airport
Arrival Airport
Navaid (VOR, NDB)
Fix

Horizontal Profiles

Position Reports

Time Latitude Longitude Heading Altitude Ground
Speed
25-Oct-20 11:11 42.901404 -106.460039 228 5329ft 0kts
25-Oct-20 11:11 42.901404 -106.460039 228 5329ft 0kts
25-Oct-20 11:12 42.901404 -106.460039 228 5329ft 0kts
25-Oct-20 11:13 42.901404 -106.460039 228 5329ft 0kts
25-Oct-20 11:14 42.901404 -106.460039 228 5329ft 0kts
25-Oct-20 11:15 42.901404 -106.460039 228 5329ft 0kts
25-Oct-20 11:16 42.901404 -106.460039 228 5329ft 0kts
25-Oct-20 11:17 42.899900 -106.462190 238 5329ft 0kts
25-Oct-20 11:18 42.898432 -106.465052 235 5329ft 16kts
25-Oct-20 11:19 42.896068 -106.468179 301 5328ft 8kts
25-Oct-20 11:20 42.894906 -106.470169 247 5329ft 5kts
25-Oct-20 11:21 42.893641 -106.471224 344 5328ft 6kts
25-Oct-20 11:22 42.893206 -106.472459 220 5329ft 12kts
25-Oct-20 11:23 42.892855 -106.473686 299 5328ft 0kts
25-Oct-20 11:24 42.892855 -106.473687 300 5328ft 0kts
25-Oct-20 11:25 42.892861 -106.473703 306 5328ft 1kts
25-Oct-20 11:26 42.896035 -106.471768 42 5332ft 64kts
25-Oct-20 11:27 42.916859 -106.447446 33 6045ft 100kts
25-Oct-20 11:28 42.928886 -106.470767 237 6870ft 133kts
25-Oct-20 11:29 42.890414 -106.472736 193 7553ft 148kts
25-Oct-20 11:30 42.854541 -106.496479 214 8288ft 144kts
25-Oct-20 11:31 42.818153 -106.517643 211 8985ft 143kts
25-Oct-20 11:32 42.782242 -106.537524 211 9685ft 136kts
25-Oct-20 11:33 42.776351 -106.572328 310 10111ft 130kts
25-Oct-20 11:34 42.805508 -106.606199 311 9963ft 155kts
25-Oct-20 11:35 42.842531 -106.633274 327 9922ft 152kts
25-Oct-20 11:36 42.877406 -106.661229 332 9801ft 143kts
25-Oct-20 11:37 42.908552 -106.681802 318 10447ft 120kts
25-Oct-20 11:38 42.940070 -106.701853 340 10981ft 145kts
25-Oct-20 11:39 42.980542 -106.708747 342 11696ft 144kts
25-Oct-20 11:40 43.022605 -106.716899 342 11985ft 170kts
25-Oct-20 11:41 43.069345 -106.735288 333 11978ft 175kts
25-Oct-20 11:42 43.088576 -106.787991 282 11977ft 159kts
25-Oct-20 11:43 43.097123 -106.846447 271 11977ft 156kts
25-Oct-20 11:44 43.101993 -106.906075 271 11974ft 158kts
25-Oct-20 11:45 43.106657 -106.966665 271 11955ft 161kts
25-Oct-20 11:46 43.110845 -107.027924 270 11956ft 162kts
25-Oct-20 11:47 43.113614 -107.090237 268 11956ft 164kts
25-Oct-20 11:48 43.115184 -107.152741 268 11955ft 164kts
25-Oct-20 11:49 43.115200 -107.215200 266 11957ft 164kts
25-Oct-20 11:50 43.115012 -107.278346 266 11955ft 165kts
25-Oct-20 11:51 43.114818 -107.340949 266 11964ft 162kts
25-Oct-20 11:52 43.113447 -107.402071 263 11977ft 159kts
25-Oct-20 11:53 43.110865 -107.462438 263 11987ft 159kts
25-Oct-20 11:54 43.108254 -107.522884 263 11996ft 158kts
25-Oct-20 11:55 43.105643 -107.583153 263 11983ft 156kts
25-Oct-20 11:56 43.103070 -107.642007 263 11971ft 154kts
25-Oct-20 11:57 43.099887 -107.700100 246 11951ft 151kts
25-Oct-20 11:58 43.083799 -107.753037 244 11950ft 150kts
25-Oct-20 11:59 43.067048 -107.806642 243 11603ft 159kts
25-Oct-20 12:00 43.046235 -107.864586 240 10630ft 176kts
25-Oct-20 12:01 43.021579 -107.923300 240 9693ft 179kts
25-Oct-20 12:02 42.998106 -107.975870 240 9576ft 144kts
25-Oct-20 12:03 42.977557 -108.019785 240 9581ft 132kts
25-Oct-20 12:04 42.957181 -108.061768 240 9606ft 135kts
25-Oct-20 12:05 42.946550 -108.107261 291 9603ft 134kts
25-Oct-20 12:06 42.958063 -108.154479 294 9602ft 130kts
25-Oct-20 12:07 42.986039 -108.174370 36 9224ft 156kts
25-Oct-20 12:08 42.979543 -108.116009 113 8602ft 170kts
25-Oct-20 12:09 42.950574 -108.086906 222 8582ft 129kts
25-Oct-20 12:10 42.953248 -108.125693 294 8598ft 111kts
25-Oct-20 12:11 42.966729 -108.167120 295 8599ft 127kts
25-Oct-20 12:12 42.981722 -108.211778 295 8596ft 129kts
25-Oct-20 12:13 42.996688 -108.256047 295 8457ft 128kts
25-Oct-20 12:14 43.011387 -108.302657 292 7697ft 129kts
25-Oct-20 12:15 43.025222 -108.341977 306 7106ft 103kts
25-Oct-20 12:16 43.037494 -108.376878 287 6579ft 105kts
25-Oct-20 12:17 43.049410 -108.411931 305 5964ft 100kts
25-Oct-20 12:18 43.059930 -108.444174 302 5485ft 86kts
25-Oct-20 12:19 43.065041 -108.458995 290 5473ft 8kts
25-Oct-20 12:20 43.063684 -108.458582 99 5469ft 5kts
25-Oct-20 12:21 43.062267 -108.457183 280 5463ft 0kts
25-Oct-20 12:22 43.062265 -108.457181 287 5463ft 0kts
25-Oct-20 12:23 43.062265 -108.457180 287 5463ft 0kts

Navigation Log

Ident Type
Flight plan parsing failed, navigation log unavailable